Time;durP1;ratioP1;P1;durP2;ratioP2;P2;SDS_P1;SDS_P2;PMS_P1;PMS_P2;Temp;Humidity;BMP_temperature;BMP_pressure;BME280_temperature;BME280_humidity;BME280_pressure;Samples;Min_cycle;Max_cycle;Signal;HPM_P1;HPM_P2
2023/10/05 00:02:04;;;;;;;2.42;2.33;;;;;;;;;;5043259;28;20041;-64
2023/10/05 00:04:41;;;;;;;2.45;2.25;;;;;;;;;;5040319;28;20044;-63
2023/10/05 00:07:12;;;;;;;2.50;2.30;;;;;;;;;;5039115;28;20049;-63
2023/10/05 00:09:43;;;;;;;2.25;2.15;;;;;;;;;;5043292;28;20492;-64
2023/10/05 00:12:18;;;;;;;2.38;2.17;;;;;;;;;;5043701;28;20053;-63
2023/10/05 00:14:48;;;;;;;2.20;2.10;;;;;;;;;;5043889;28;20052;-63
2023/10/05 00:17:20;;;;;;;2.20;2.10;;;;;;;;;;5041569;28;20453;-63
2023/10/05 00:19:48;;;;;;;2.25;2.05;;;;;;;;;;5042923;28;20094;-63
2023/10/05 00:22:17;;;;;;;2.60;2.40;;;;;;;;;;5041107;28;20107;-63
2023/10/05 00:24:48;;;;;;;2.38;2.17;;;;;;;;;;5043074;28;20033;-63
2023/10/05 00:27:17;;;;;;;6.10;2.33;;;;;;;;;;5041763;28;20051;-63
2023/10/05 00:29:57;;;;;;;2.63;2.42;;;;;;;;;;5040954;28;20068;-63
2023/10/05 00:32:34;;;;;;;2.50;2.30;;;;;;;;;;5043728;28;20102;-63
2023/10/05 00:35:16;;;;;;;2.25;2.10;;;;;;;;;;5041328;28;20426;-63
2023/10/05 00:37:45;;;;;;;2.60;2.40;;;;;;;;;;5044115;28;20045;-63
2023/10/05 00:40:27;;;;;;;2.55;2.35;;;;;;;;;;5042152;28;20045;-64
2023/10/05 00:43:00;;;;;;;2.45;2.28;;;;;;;;;;5041773;28;20569;-64
2023/10/05 00:45:31;;;;;;;2.45;2.25;;;;;;;;;;5042672;28;20044;-64
2023/10/05 00:48:08;;;;;;;2.17;2.05;;;;;;;;;;5045511;28;20045;-64
2023/10/05 00:50:39;;;;;;;2.42;2.25;;;;;;;;;;5046771;28;20056;-64
2023/10/05 00:53:09;;;;;;;2.00;1.90;;;;;;;;;;5045272;28;20559;-64
2023/10/05 00:55:41;;;;;;;3.55;2.50;;;;;;;;;;5045252;28;20053;-64
2023/10/05 00:58:11;;;;;;;2.10;1.90;;;;;;;;;;5049053;28;20134;-64
2023/10/05 01:00:50;;;;;;;2.20;2.00;;;;;;;;;;5045403;28;20056;-64
2023/10/05 01:03:23;;;;;;;2.83;2.50;;;;;;;;;;5044924;28;20435;-64
2023/10/05 01:06:10;;;;;;;2.28;2.13;;;;;;;;;;5043190;28;20051;-64
2023/10/05 01:08:49;;;;;;;2.40;2.20;;;;;;;;;;5045184;28;20073;-64
2023/10/05 01:11:37;;;;;;;2.25;2.05;;;;;;;;;;5046843;28;20392;-64
2023/10/05 01:14:06;;;;;;;2.45;2.22;;;;;;;;;;5043878;28;20053;-64
2023/10/05 01:16:35;;;;;;;2.72;2.10;;;;;;;;;;5043867;28;20048;-64
2023/10/05 01:19:07;;;;;;;2.55;2.35;;;;;;;;;;5042368;28;20052;-64
2023/10/05 01:21:38;;;;;;;2.65;2.45;;;;;;;;;;5047387;28;20545;-62
2023/10/05 01:24:10;;;;;;;2.38;2.28;;;;;;;;;;5044493;28;20438;-62
2023/10/05 01:26:40;;;;;;;2.30;2.20;;;;;;;;;;5046114;28;20041;-62
2023/10/05 01:29:09;;;;;;;2.30;2.15;;;;;;;;;;5044335;28;20053;-62
2023/10/05 01:31:39;;;;;;;2.75;2.30;;;;;;;;;;5043643;28;20095;-62
2023/10/05 01:34:08;;;;;;;2.25;2.13;;;;;;;;;;5043095;28;20059;-62
2023/10/05 01:36:37;;;;;;;2.20;2.10;;;;;;;;;;5045053;28;20045;-63
2023/10/05 01:39:09;;;;;;;2.60;2.40;;;;;;;;;;5045551;28;20049;-62
2023/10/05 01:41:39;;;;;;;2.30;2.10;;;;;;;;;;5045897;28;20047;-62
2023/10/05 01:44:08;;;;;;;2.38;2.17;;;;;;;;;;5044344;28;20063;-62
2023/10/05 01:46:37;;;;;;;2.70;2.13;;;;;;;;;;5044155;28;20041;-62
2023/10/05 01:49:06;;;;;;;2.25;2.05;;;;;;;;;;5045528;28;20040;-62
2023/10/05 01:51:35;;;;;;;3.67;2.03;;;;;;;;;;5046698;28;20417;-62
2023/10/05 01:54:11;;;;;;;2.60;2.40;;;;;;;;;;5040802;28;20037;-62
2023/10/05 01:56:44;;;;;;;2.45;2.25;;;;;;;;;;5046140;28;20053;-62
2023/10/05 01:59:13;;;;;;;2.25;2.10;;;;;;;;;;5044222;28;20052;-62
2023/10/05 02:01:43;;;;;;;2.20;2.10;;;;;;;;;;5047230;28;20053;-62
2023/10/05 02:04:14;;;;;;;2.55;2.35;;;;;;;;;;5042573;28;20052;-62
2023/10/05 02:06:45;;;;;;;2.05;1.95;;;;;;;;;;5042845;28;20037;-62
2023/10/05 02:09:14;;;;;;;4.93;2.55;;;;;;;;;;5042404;28;20053;-62
2023/10/05 02:11:44;;;;;;;2.35;2.15;;;;;;;;;;5045656;28;20650;-62
2023/10/05 02:14:14;;;;;;;2.03;1.88;;;;;;;;;;5043209;28;20041;-62
2023/10/05 02:16:42;;;;;;;2.40;2.20;;;;;;;;;;5045367;28;20137;-62
2023/10/05 02:19:14;;;;;;;2.40;2.20;;;;;;;;;;5043939;28;20053;-62
2023/10/05 02:21:43;;;;;;;2.53;2.10;;;;;;;;;;5043214;28;20072;-62
2023/10/05 02:24:12;;;;;;;2.50;2.30;;;;;;;;;;5043305;28;20041;-63
2023/10/05 02:26:56;;;;;;;2.38;2.22;;;;;;;;;;5044903;28;20049;-62
2023/10/05 02:29:25;;;;;;;2.30;2.10;;;;;;;;;;5045565;28;20095;-62
2023/10/05 02:32:05;;;;;;;2.33;2.13;;;;;;;;;;5045891;28;20453;-62
2023/10/05 02:34:39;;;;;;;2.30;2.17;;;;;;;;;;5039807;28;20093;-62
2023/10/05 02:37:11;;;;;;;2.17;2.08;;;;;;;;;;5044766;28;20057;-61
2023/10/05 02:39:40;;;;;;;2.03;1.90;;;;;;;;;;5043555;28;21201;-62
2023/10/05 02:42:13;;;;;;;3.45;2.30;;;;;;;;;;5044062;28;20052;-62
2023/10/05 02:44:42;;;;;;;2.22;2.10;;;;;;;;;;5046051;28;20045;-61
2023/10/05 02:47:13;;;;;;;2.70;2.50;;;;;;;;;;5041222;28;20041;-62
2023/10/05 02:49:44;;;;;;;2.20;2.05;;;;;;;;;;5045652;28;20059;-62
2023/10/05 02:52:14;;;;;;;2.55;2.10;;;;;;;;;;5042331;28;20498;-62
2023/10/05 02:54:43;;;;;;;2.45;2.30;;;;;;;;;;5042617;28;20053;-61
2023/10/05 02:57:14;;;;;;;2.45;2.25;;;;;;;;;;5042304;28;20260;-62
2023/10/05 02:59:43;;;;;;;3.47;2.30;;;;;;;;;;5044577;28;20516;-61
2023/10/05 03:02:14;;;;;;;2.15;2.05;;;;;;;;;;5042249;28;20037;-62
2023/10/05 03:04:46;;;;;;;2.35;2.22;;;;;;;;;;5043000;28;20456;-62
2023/10/05 03:07:16;;;;;;;2.58;2.28;;;;;;;;;;5041395;28;20071;-62
2023/10/05 03:09:46;;;;;;;2.42;2.22;;;;;;;;;;5042931;28;20045;-61
2023/10/05 03:12:20;;;;;;;2.65;2.45;;;;;;;;;;5041171;28;20041;-62
2023/10/05 03:14:50;;;;;;;2.67;2.47;;;;;;;;;;5042491;28;20057;-62
2023/10/05 03:17:21;;;;;;;2.88;2.28;;;;;;;;;;5043680;28;20049;-61
2023/10/05 03:19:51;;;;;;;2.22;2.10;;;;;;;;;;5042580;28;20037;-62
2023/10/05 03:22:23;;;;;;;2.33;2.13;;;;;;;;;;5043036;28;20037;-62
2023/10/05 03:24:53;;;;;;;2.30;2.10;;;;;;;;;;5042950;28;20510;-61
2023/10/05 03:27:25;;;;;;;2.50;2.30;;;;;;;;;;5043973;28;20041;-62
2023/10/05 03:30:00;;;;;;;2.17;2.08;;;;;;;;;;5043612;28;20053;-61
2023/10/05 03:32:30;;;;;;;2.60;2.40;;;;;;;;;;5043613;28;20516;-61
2023/10/05 03:34:58;;;;;;;2.30;2.13;;;;;;;;;;5044205;28;20080;-61
2023/10/05 03:37:29;;;;;;;2.95;2.28;;;;;;;;;;5044709;28;20052;-62
2023/10/05 03:40:06;;;;;;;2.40;2.20;;;;;;;;;;5044375;28;20127;-61
2023/10/05 03:42:36;;;;;;;2.28;2.17;;;;;;;;;;5041572;28;20099;-62
2023/10/05 03:45:09;;;;;;;2.53;2.33;;;;;;;;;;5044431;28;20045;-61
2023/10/05 03:47:38;;;;;;;2.50;2.30;;;;;;;;;;5043931;28;20057;-61
2023/10/05 03:50:08;;;;;;;2.45;2.35;;;;;;;;;;5044336;28;20509;-61
2023/10/05 03:52:36;;;;;;;2.90;2.70;;;;;;;;;;5044907;28;20048;-62
2023/10/05 03:55:09;;;;;;;2.28;2.15;;;;;;;;;;5039078;28;20048;-62
2023/10/05 03:57:41;;;;;;;2.30;2.10;;;;;;;;;;5041311;28;20171;-62
2023/10/05 04:00:23;;;;;;;3.03;2.67;;;;;;;;;;5043847;28;20529;-62
2023/10/05 04:02:52;;;;;;;2.47;2.28;;;;;;;;;;5043576;28;20041;-61
2023/10/05 04:05:22;;;;;;;2.22;2.05;;;;;;;;;;5042339;28;20488;-62
2023/10/05 04:07:52;;;;;;;2.50;2.30;;;;;;;;;;5043605;28;20041;-61
2023/10/05 04:10:34;;;;;;;2.35;2.15;;;;;;;;;;5037402;28;20084;-61
2023/10/05 04:13:05;;;;;;;2.60;2.40;;;;;;;;;;5037363;28;20064;-62
2023/10/05 04:15:33;;;;;;;2.13;2.03;;;;;;;;;;5043700;28;20068;-62
2023/10/05 04:18:02;;;;;;;2.47;2.38;;;;;;;;;;5041291;28;20115;-61
2023/10/05 04:20:30;;;;;;;2.30;2.10;;;;;;;;;;5041628;28;20244;-61
2023/10/05 04:22:59;;;;;;;2.38;2.20;;;;;;;;;;5046852;28;20119;-62
2023/10/05 04:25:28;;;;;;;2.30;2.10;;;;;;;;;;5044328;28;20478;-62
2023/10/05 04:27:56;;;;;;;2.78;2.47;;;;;;;;;;5035686;28;20517;-62
2023/10/05 04:30:27;;;;;;;2.40;2.20;;;;;;;;;;5042803;28;20041;-62
2023/10/05 04:32:57;;;;;;;2.25;2.15;;;;;;;;;;5046504;28;20041;-62
2023/10/05 04:35:27;;;;;;;2.10;2.00;;;;;;;;;;5047111;28;20412;-62
2023/10/05 04:37:56;;;;;;;2.40;2.20;;;;;;;;;;5048744;28;20057;-62
2023/10/05 04:40:26;;;;;;;2.80;2.30;;;;;;;;;;5044099;28;20505;-62
2023/10/05 04:42:58;;;;;;;2.55;2.35;;;;;;;;;;5042132;28;20049;-62
2023/10/05 04:45:28;;;;;;;2.55;2.35;;;;;;;;;;5043862;28;20077;-62
2023/10/05 04:47:59;;;;;;;2.40;2.20;;;;;;;;;;5045886;28;20487;-62
2023/10/05 04:50:28;;;;;;;3.83;2.45;;;;;;;;;;5045389;28;20114;-62
2023/10/05 04:53:00;;;;;;;2.20;2.00;;;;;;;;;;5047036;28;20057;-62
2023/10/05 04:55:32;;;;;;;2.25;2.13;;;;;;;;;;5045202;28;20041;-62
2023/10/05 05:01:15;;;;;;;1.98;1.88;;;;;;;;;;5039325;28;20131;-62
2023/10/05 05:03:48;;;;;;;2.22;2.03;;;;;;;;;;5040361;28;20123;-62
2023/10/05 05:06:17;;;;;;;2.00;1.90;;;;;;;;;;5038536;28;20057;-62
2023/10/05 05:08:46;;;;;;;2.30;2.10;;;;;;;;;;5043046;28;20041;-62
2023/10/05 05:11:18;;;;;;;2.63;2.10;;;;;;;;;;5044461;28;20140;-61
2023/10/05 05:13:48;;;;;;;2.30;2.10;;;;;;;;;;5042891;28;20048;-62
2023/10/05 05:16:19;;;;;;;2.38;2.17;;;;;;;;;;5044734;28;20048;-62
2023/10/05 05:18:47;;;;;;;2.30;2.20;;;;;;;;;;5031626;28;20172;-63
2023/10/05 05:21:16;;;;;;;2.28;2.08;;;;;;;;;;5041206;28;20507;-63
2023/10/05 05:23:47;;;;;;;2.22;2.03;;;;;;;;;;5045860;28;21438;-63
2023/10/05 05:26:15;;;;;;;2.42;2.22;;;;;;;;;;5045383;28;20516;-62
2023/10/05 05:28:44;;;;;;;3.45;2.13;;;;;;;;;;5045630;28;20041;-62
2023/10/05 05:31:16;;;;;;;2.17;2.08;;;;;;;;;;5040175;28;20387;-61
2023/10/05 05:33:48;;;;;;;2.13;1.92;;;;;;;;;;5042950;28;20053;-61
2023/10/05 05:36:17;;;;;;;2.28;2.10;;;;;;;;;;5046333;28;20720;-61
2023/10/05 05:38:48;;;;;;;2.25;2.08;;;;;;;;;;5043748;28;20049;-60
2023/10/05 05:41:19;;;;;;;2.03;1.92;;;;;;;;;;5043934;28;20052;-62
2023/10/05 05:43:49;;;;;;;2.72;2.53;;;;;;;;;;5042061;28;20556;-60
2023/10/05 05:46:17;;;;;;;2.15;1.95;;;;;;;;;;5044657;28;20107;-61
2023/10/05 05:48:52;;;;;;;4.22;2.20;;;;;;;;;;5045821;28;20072;-61
2023/10/05 05:51:24;;;;;;;1.95;1.85;;;;;;;;;;5047157;28;21007;-63
2023/10/05 05:53:53;;;;;;;2.40;2.20;;;;;;;;;;5044803;28;20041;-63
2023/10/05 05:56:28;;;;;;;2.50;2.30;;;;;;;;;;5044961;28;20045;-61
2023/10/05 05:58:57;;;;;;;2.50;2.30;;;;;;;;;;5036575;28;20095;-60
2023/10/05 06:01:26;;;;;;;2.50;2.30;;;;;;;;;;5043168;28;20049;-62
2023/10/05 06:03:56;;;;;;;2.45;2.25;;;;;;;;;;5041860;28;20453;-61
2023/10/05 06:06:24;;;;;;;2.20;2.10;;;;;;;;;;5046916;28;20076;-61
2023/10/05 06:08:53;;;;;;;3.28;2.30;;;;;;;;;;5035752;28;20073;-61
2023/10/05 06:11:22;;;;;;;2.42;2.22;;;;;;;;;;5041802;28;20490;-62
2023/10/05 06:13:51;;;;;;;4.15;2.50;;;;;;;;;;5043789;28;20072;-62
2023/10/05 06:16:19;;;;;;;2.63;2.42;;;;;;;;;;5047201;28;20086;-61
2023/10/05 06:18:48;;;;;;;2.80;2.42;;;;;;;;;;5047076;28;20053;-61
2023/10/05 06:21:19;;;;;;;2.30;2.13;;;;;;;;;;5048203;28;20052;-61
2023/10/05 06:23:50;;;;;;;3.28;2.35;;;;;;;;;;5045936;28;20506;-61
2023/10/05 06:26:18;;;;;;;2.42;2.22;;;;;;;;;;5044005;28;20044;-61
2023/10/05 06:28:47;;;;;;;2.42;2.22;;;;;;;;;;5040439;28;20352;-61
2023/10/05 06:31:16;;;;;;;3.72;2.25;;;;;;;;;;5046106;28;20102;-61
2023/10/05 06:33:46;;;;;;;2.50;2.30;;;;;;;;;;5041733;28;20045;-61
2023/10/05 06:36:14;;;;;;;2.25;2.05;;;;;;;;;;5034535;28;20384;-61
2023/10/05 06:38:53;;;;;;;5.55;2.53;;;;;;;;;;5048178;28;20126;-61
2023/10/05 06:41:22;;;;;;;2.60;2.40;;;;;;;;;;5040117;28;20118;-61
2023/10/05 06:43:51;;;;;;;4.40;2.70;;;;;;;;;;5041774;28;20139;-61
2023/10/05 06:46:26;;;;;;;2.72;2.45;;;;;;;;;;5044676;28;20061;-61
2023/10/05 06:48:55;;;;;;;2.55;2.20;;;;;;;;;;5043502;28;20049;-61
2023/10/05 06:51:26;;;;;;;5.05;2.72;;;;;;;;;;5041828;28;20465;-61
2023/10/05 06:53:57;;;;;;;4.78;2.58;;;;;;;;;;5043896;28;20528;-61
2023/10/05 06:56:26;;;;;;;2.90;2.70;;;;;;;;;;5040625;28;20057;-61
2023/10/05 06:58:55;;;;;;;2.67;2.42;;;;;;;;;;5049130;28;20045;-61
2023/10/05 07:01:24;;;;;;;3.70;2.78;;;;;;;;;;5039611;28;20049;-61
2023/10/05 07:03:53;;;;;;;4.85;2.72;;;;;;;;;;5046203;28;20073;-61
2023/10/05 07:06:24;;;;;;;3.92;2.90;;;;;;;;;;5043429;28;20049;-61
2023/10/05 07:08:53;;;;;;;2.60;2.40;;;;;;;;;;5049168;28;20056;-61
2023/10/05 07:11:24;;;;;;;2.22;2.08;;;;;;;;;;5040392;28;20069;-61
2023/10/05 07:13:53;;;;;;;2.60;2.40;;;;;;;;;;5046850;28;20041;-61
2023/10/05 07:16:22;;;;;;;3.58;2.33;;;;;;;;;;5055392;28;20087;-61
2023/10/05 07:18:50;;;;;;;2.35;2.22;;;;;;;;;;5034895;28;20056;-61
2023/10/05 07:21:20;;;;;;;3.53;2.60;;;;;;;;;;5045395;28;20537;-62
2023/10/05 07:23:48;;;;;;;3.30;2.40;;;;;;;;;;5045901;28;20044;-62
2023/10/05 07:26:17;;;;;;;3.03;2.60;;;;;;;;;;5047115;28;20037;-61
2023/10/05 07:28:47;;;;;;;2.70;2.50;;;;;;;;;;5041743;28;20409;-62
2023/10/05 07:31:16;;;;;;;2.75;2.20;;;;;;;;;;5047504;28;20122;-62
2023/10/05 07:33:45;;;;;;;2.55;2.30;;;;;;;;;;5045062;28;20494;-62
2023/10/05 07:36:13;;;;;;;2.75;2.55;;;;;;;;;;5045662;28;20064;-62
2023/10/05 07:38:44;;;;;;;2.45;2.25;;;;;;;;;;5041483;28;20150;-63
2023/10/05 07:41:12;;;;;;;2.78;2.28;;;;;;;;;;5046544;28;20500;-63
2023/10/05 07:43:41;;;;;;;2.80;2.60;;;;;;;;;;5043590;28;20049;-62
2023/10/05 07:46:17;;;;;;;2.60;2.40;;;;;;;;;;5041154;28;20284;-62
2023/10/05 07:48:47;;;;;;;2.42;2.22;;;;;;;;;;5035118;28;20143;-61
2023/10/05 07:51:16;;;;;;;2.20;2.10;;;;;;;;;;5030808;28;20084;-62
2023/10/05 07:53:45;;;;;;;2.22;2.00;;;;;;;;;;5034568;28;20081;-63
2023/10/05 07:56:13;;;;;;;2.30;2.20;;;;;;;;;;5034023;28;20407;-62
2023/10/05 07:58:44;;;;;;;2.85;2.65;;;;;;;;;;5043257;28;20049;-63
2023/10/05 08:01:14;;;;;;;4.13;3.25;;;;;;;;;;5047749;28;20052;-62
2023/10/05 08:03:44;;;;;;;3.67;3.00;;;;;;;;;;5046297;28;20068;-62
2023/10/05 08:06:15;;;;;;;3.10;2.80;;;;;;;;;;5046850;28;20045;-62
2023/10/05 08:08:43;;;;;;;3.25;2.95;;;;;;;;;;5043915;28;20517;-64
2023/10/05 08:11:15;;;;;;;2.97;2.40;;;;;;;;;;5043947;28;20829;-64
2023/10/05 08:13:44;;;;;;;2.85;2.63;;;;;;;;;;5045244;28;20445;-64
2023/10/05 08:16:13;;;;;;;2.42;2.22;;;;;;;;;;5046352;28;20049;-64
2023/10/05 08:18:43;;;;;;;2.40;2.20;;;;;;;;;;5045346;28;20404;-64
2023/10/05 08:21:14;;;;;;;3.13;2.67;;;;;;;;;;5046877;28;20045;-64
2023/10/05 08:23:43;;;;;;;2.38;2.22;;;;;;;;;;5045045;28;20568;-65
2023/10/05 08:26:13;;;;;;;4.18;2.58;;;;;;;;;;5046010;28;20061;-64
2023/10/05 08:28:41;;;;;;;2.83;2.30;;;;;;;;;;5046626;28;20049;-64
2023/10/05 08:31:11;;;;;;;2.60;2.13;;;;;;;;;;5047377;28;20033;-62
2023/10/05 08:33:40;;;;;;;2.72;2.42;;;;;;;;;;5042313;28;20059;-62
2023/10/05 08:36:11;;;;;;;3.20;2.30;;;;;;;;;;5047626;28;20056;-61
2023/10/05 08:38:43;;;;;;;2.33;2.13;;;;;;;;;;5046561;28;20509;-62
2023/10/05 08:41:14;;;;;;;2.50;2.30;;;;;;;;;;5045083;28;20061;-63
2023/10/05 08:43:46;;;;;;;2.30;2.13;;;;;;;;;;5046632;28;20135;-62
2023/10/05 08:46:17;;;;;;;2.17;2.08;;;;;;;;;;5042785;28;20379;-62
2023/10/05 08:48:46;;;;;;;2.63;2.22;;;;;;;;;;5045204;28;20098;-62
2023/10/05 08:51:15;;;;;;;2.83;1.70;;;;;;;;;;5044464;28;20056;-61
2023/10/05 08:53:54;;;;;;;2.58;2.30;;;;;;;;;;5045090;28;20992;-62
2023/10/05 08:56:24;;;;;;;2.50;2.30;;;;;;;;;;5045827;28;20052;-62
2023/10/05 08:58:59;;;;;;;2.25;2.05;;;;;;;;;;5044974;28;20107;-62
2023/10/05 09:01:29;;;;;;;6.85;2.10;;;;;;;;;;5046444;28;20362;-62
2023/10/05 09:04:11;;;;;;;2.95;2.45;;;;;;;;;;5046506;28;20045;-62
2023/10/05 09:06:47;;;;;;;3.60;2.40;;;;;;;;;;5045267;28;20060;-62
2023/10/05 09:09:19;;;;;;;2.80;2.60;;;;;;;;;;5041788;28;20128;-64
2023/10/05 09:11:47;;;;;;;2.80;2.30;;;;;;;;;;5043564;28;20060;-63
2023/10/05 09:14:27;;;;;;;2.60;2.40;;;;;;;;;;5041850;28;20108;-63
2023/10/05 09:17:07;;;;;;;2.60;2.40;;;;;;;;;;5047592;28;20048;-63
2023/10/05 09:19:37;;;;;;;4.47;2.97;;;;;;;;;;5043825;28;20095;-62
2023/10/05 09:22:12;;;;;;;2.45;2.25;;;;;;;;;;5045372;28;20102;-63
2023/10/05 09:24:44;;;;;;;;;;;;;;;;;;5041892;28;20061;-63
2023/10/05 09:27:14;;;;;;;2.47;2.28;;;;;;;;;;5045119;28;19925;-63
2023/10/05 09:29:44;;;;;;;2.40;2.20;;;;;;;;;;5045082;28;20049;-63
2023/10/05 09:32:25;;;;;;;2.38;2.17;;;;;;;;;;5043041;28;20111;-63
2023/10/05 09:34:56;;;;;;;2.20;2.10;;;;;;;;;;5042087;28;20486;-63
2023/10/05 09:37:28;;;;;;;5.03;2.38;;;;;;;;;;5045507;28;20047;-63
2023/10/05 09:39:59;;;;;;;3.28;2.45;;;;;;;;;;5045711;28;20750;-64
2023/10/05 09:42:33;;;;;;;2.13;2.00;;;;;;;;;;5045503;28;20052;-64
2023/10/05 09:45:08;;;;;;;4.35;2.08;;;;;;;;;;5044943;28;20060;-64
2023/10/05 09:47:39;;;;;;;3.08;2.33;;;;;;;;;;5046640;28;20469;-63
2023/10/05 09:50:10;;;;;;;2.42;2.20;;;;;;;;;;5044007;28;20048;-64
2023/10/05 09:52:43;;;;;;;2.72;2.53;;;;;;;;;;5046038;28;20057;-64
2023/10/05 09:55:12;;;;;;;2.10;1.95;;;;;;;;;;5044076;28;20048;-64
2023/10/05 09:57:46;;;;;;;2.53;2.25;;;;;;;;;;5045298;28;20048;-64
2023/10/05 10:00:27;;;;;;;3.95;2.50;;;;;;;;;;5046477;28;20064;-64
2023/10/05 10:02:57;;;;;;;2.22;1.98;;;;;;;;;;5047153;28;20512;-63
2023/10/05 10:05:30;;;;;;;2.03;1.88;;;;;;;;;;5041103;28;20497;-65
2023/10/05 10:08:07;;;;;;;2.20;2.00;;;;;;;;;;5037271;28;20559;-64
2023/10/05 10:10:41;;;;;;;1.77;1.65;;;;;;;;;;5042657;28;20056;-65
2023/10/05 10:13:12;;;;;;;2.45;2.30;;;;;;;;;;5039755;28;20441;-62
2023/10/05 10:15:45;;;;;;;1.70;1.60;;;;;;;;;;5043618;28;20525;-63
2023/10/05 10:18:15;;;;;;;1.92;1.77;;;;;;;;;;5043805;28;20055;-63
2023/10/05 10:20:49;;;;;;;2.60;2.03;;;;;;;;;;5044364;28;20821;-63
2023/10/05 10:23:24;;;;;;;1.90;1.80;;;;;;;;;;5044335;28;21102;-63
2023/10/05 10:25:52;;;;;;;;;;;;;;;;;;5044921;28;20049;-62
2023/10/05 10:28:39;;;;;;;2.83;1.80;;;;;;;;;;5042610;28;19927;-63
2023/10/05 10:31:16;;;;;;;2.30;2.10;;;;;;;;;;5044197;28;20048;-63
2023/10/05 10:33:54;;;;;;;2.15;1.63;;;;;;;;;;5042302;28;20615;-63
2023/10/05 10:36:23;;;;;;;;;;;;;;;;;;5041796;28;20147;-63
2023/10/05 10:38:52;;;;;;;2.08;1.88;;;;;;;;;;5044184;28;19924;-63
2023/10/05 10:41:30;;;;;;;2.38;2.17;;;;;;;;;;5042765;28;20049;-63
2023/10/05 10:44:05;;;;;;;2.38;2.10;;;;;;;;;;5042544;28;20139;-63
2023/10/05 10:46:34;;;;;;;3.20;1.98;;;;;;;;;;5043013;28;20486;-64
2023/10/05 10:49:07;;;;;;;2.80;2.15;;;;;;;;;;5044043;28;20049;-65
2023/10/05 10:51:43;;;;;;;2.15;1.98;;;;;;;;;;5043981;28;20509;-65
2023/10/05 10:54:15;;;;;;;2.00;1.90;;;;;;;;;;5043478;28;20110;-64
2023/10/05 10:56:44;;;;;;;2.20;2.10;;;;;;;;;;5044250;28;20107;-65
2023/10/05 10:59:26;;;;;;;3.22;2.28;;;;;;;;;;5042455;28;20045;-66
2023/10/05 11:01:59;;;;;;;2.35;1.80;;;;;;;;;;5042859;28;20060;-64
2023/10/05 11:04:36;;;;;;;2.50;2.30;;;;;;;;;;5041546;28;20167;-65
2023/10/05 11:07:26;;;;;;;2.00;1.90;;;;;;;;;;5043526;28;20051;-64
2023/10/05 11:09:55;;;;;;;2.17;1.83;;;;;;;;;;5037186;28;20053;-64
2023/10/05 11:12:23;;;;;;;1.80;1.70;;;;;;;;;;5043267;28;20041;-63
2023/10/05 11:15:08;;;;;;;4.20;2.05;;;;;;;;;;5043874;28;20114;-64
2023/10/05 11:17:44;;;;;;;1.92;1.80;;;;;;;;;;5045925;28;20084;-63
2023/10/05 11:20:23;;;;;;;2.45;1.75;;;;;;;;;;5044738;28;20056;-64
2023/10/05 11:22:55;;;;;;;2.33;1.98;;;;;;;;;;5043335;28;20053;-64
2023/10/05 11:25:31;;;;;;;2.15;1.95;;;;;;;;;;5038042;28;20103;-64
2023/10/05 11:28:01;;;;;;;2.08;1.67;;;;;;;;;;5043458;28;20129;-63
2023/10/05 11:30:42;;;;;;;1.80;1.70;;;;;;;;;;5042556;28;20391;-63
2023/10/05 11:33:34;;;;;;;3.78;2.33;;;;;;;;;;5039223;28;20607;-63
2023/10/05 11:36:27;;;;;;;4.53;2.38;;;;;;;;;;5039282;28;20660;-64
2023/10/05 11:38:58;;;;;;;2.40;2.22;;;;;;;;;;5040183;28;20537;-63
2023/10/05 11:41:28;;;;;;;2.78;2.58;;;;;;;;;;5041085;28;20068;-64
2023/10/05 11:43:58;;;;;;;2.45;2.35;;;;;;;;;;5044300;28;20045;-63
2023/10/05 11:49:30;;;;;;;1.90;1.80;;;;;;;;;;5133602;27;20481;-65
2023/10/05 11:52:00;;;;;;;3.38;1.92;;;;;;;;;;5132037;27;20039;-64
2023/10/05 11:54:30;;;;;;;1.80;1.70;;;;;;;;;;5076873;27;20131;-64
2023/10/05 11:57:00;;;;;;;3.83;1.98;;;;;;;;;;5061573;28;20477;-63
2023/10/05 11:59:31;;;;;;;2.13;1.73;;;;;;;;;;5058674;28;20182;-64
2023/10/05 12:01:59;;;;;;;2.00;1.80;;;;;;;;;;5060290;28;20048;-64
2023/10/05 12:04:29;;;;;;;1.85;1.75;;;;;;;;;;5060796;28;20049;-64
2023/10/05 12:06:59;;;;;;;1.95;1.77;;;;;;;;;;5060565;28;20053;-64
2023/10/05 12:09:30;;;;;;;1.85;1.70;;;;;;;;;;5060974;28;20064;-65
2023/10/05 12:12:01;;;;;;;7.05;1.90;;;;;;;;;;5062227;28;20079;-64
2023/10/05 12:14:29;;;;;;;2.42;1.98;;;;;;;;;;5060125;28;20118;-66
2023/10/05 12:17:00;;;;;;;3.97;1.90;;;;;;;;;;5061005;28;20091;-64
2023/10/05 12:19:30;;;;;;;1.50;1.40;;;;;;;;;;5061448;28;20056;-63
2023/10/05 12:22:01;;;;;;;2.75;1.77;;;;;;;;;;5061367;28;20049;-65
2023/10/05 12:24:30;;;;;;;3.13;1.50;;;;;;;;;;5059202;28;20501;-64
2023/10/05 12:26:59;;;;;;;1.92;1.73;;;;;;;;;;5060680;28;20041;-64
2023/10/05 12:29:29;;;;;;;4.97;2.20;;;;;;;;;;5060543;28;20439;-64
2023/10/05 12:32:06;;;;;;;2.05;1.95;;;;;;;;;;5061812;28;20456;-64
2023/10/05 12:34:37;;;;;;;2.88;2.67;;;;;;;;;;5057143;28;20638;-64
2023/10/05 12:37:08;;;;;;;2.90;2.70;;;;;;;;;;5057995;28;20045;-63
2023/10/05 12:39:37;;;;;;;3.00;2.45;;;;;;;;;;5055998;28;20405;-64
2023/10/05 12:42:06;;;;;;;2.90;2.70;;;;;;;;;;5056711;28;20487;-64
2023/10/05 12:44:36;;;;;;;3.00;2.50;;;;;;;;;;5075900;28;20113;-64
2023/10/05 12:47:07;;;;;;;2.53;2.33;;;;;;;;;;5077809;28;20040;-62
2023/10/05 12:49:38;;;;;;;1.88;1.77;;;;;;;;;;5078534;28;20053;-63
2023/10/05 12:52:08;;;;;;;1.98;1.77;;;;;;;;;;5077823;28;20566;-63
2023/10/05 12:54:42;;;;;;;2.33;2.10;;;;;;;;;;5074697;28;20068;-65
2023/10/05 12:57:12;;;;;;;1.73;1.63;;;;;;;;;;5078362;28;20056;-63
2023/10/05 12:59:49;;;;;;;1.80;1.60;;;;;;;;;;5069097;28;20050;-64
2023/10/05 13:02:18;;;;;;;1.88;1.70;;;;;;;;;;5065601;28;20075;-63
2023/10/05 13:04:49;;;;;;;1.85;1.67;;;;;;;;;;5063362;28;20056;-63
2023/10/05 13:07:19;;;;;;;2.10;1.90;;;;;;;;;;5063633;28;20095;-62
2023/10/05 13:09:59;;;;;;;2.00;1.90;;;;;;;;;;5065359;28;20041;-63
2023/10/05 13:12:30;;;;;;;1.52;1.42;;;;;;;;;;5066052;28;20060;-63
2023/10/05 13:15:03;;;;;;;2.63;2.10;;;;;;;;;;5063869;28;20048;-63
2023/10/05 13:17:35;;;;;;;1.70;1.60;;;;;;;;;;5063191;28;20043;-63
2023/10/05 13:20:14;;;;;;;2.72;1.88;;;;;;;;;;5062040;28;20040;-63
2023/10/05 13:22:44;;;;;;;2.63;1.83;;;;;;;;;;5065749;28;20048;-63
2023/10/05 13:25:13;;;;;;;1.98;1.77;;;;;;;;;;5058966;28;20478;-63
2023/10/05 13:27:42;;;;;;;3.65;2.22;;;;;;;;;;5064786;28;20062;-63
2023/10/05 13:30:22;;;;;;;4.75;2.15;;;;;;;;;;5062959;28;20052;-62
2023/10/05 13:32:57;;;;;;;2.42;1.98;;;;;;;;;;5064919;28;20040;-63
2023/10/05 13:35:32;;;;;;;3.75;2.30;;;;;;;;;;5061964;28;20048;-65
2023/10/05 13:38:06;;;;;;;1.90;1.80;;;;;;;;;;5063847;28;20037;-65
2023/10/05 13:40:38;;;;;;;2.30;2.10;;;;;;;;;;5059859;28;20049;-68
2023/10/05 13:43:07;;;;;;;2.00;1.85;;;;;;;;;;5063289;28;20049;-63
2023/10/05 13:45:36;;;;;;;3.42;2.20;;;;;;;;;;5060658;28;20355;-62
2023/10/05 13:48:08;;;;;;;2.83;2.03;;;;;;;;;;5058265;28;20102;-64
2023/10/05 13:50:40;;;;;;;1.90;1.80;;;;;;;;;;5061533;28;20561;-64
2023/10/05 13:53:09;;;;;;;2.58;1.65;;;;;;;;;;5064498;28;20497;-65
2023/10/05 13:55:38;;;;;;;3.42;1.73;;;;;;;;;;5061106;28;20394;-63
2023/10/05 13:58:06;;;;;;;3.13;2.00;;;;;;;;;;5064762;28;20425;-64
2023/10/05 14:00:35;;;;;;;3.22;2.00;;;;;;;;;;5064327;28;20060;-65
2023/10/05 14:03:05;;;;;;;2.38;1.95;;;;;;;;;;5060791;28;20048;-64
2023/10/05 14:05:34;;;;;;;2.00;1.90;;;;;;;;;;5058498;28;20041;-64
2023/10/05 14:08:07;;;;;;;2.58;2.00;;;;;;;;;;5063189;28;20493;-64
2023/10/05 14:10:35;;;;;;;1.88;1.77;;;;;;;;;;5065201;28;20045;-63
2023/10/05 14:13:04;;;;;;;2.33;2.05;;;;;;;;;;5063226;28;20127;-63
2023/10/05 14:15:32;;;;;;;3.33;2.20;;;;;;;;;;5060550;28;20067;-63
2023/10/05 14:18:06;;;;;;;2.15;2.00;;;;;;;;;;5059767;28;20048;-63
2023/10/05 14:20:34;;;;;;;1.80;1.70;;;;;;;;;;5059493;28;20052;-63
2023/10/05 14:23:06;;;;;;;1.95;1.85;;;;;;;;;;5057452;28;20101;-63
2023/10/05 14:25:35;;;;;;;2.40;2.20;;;;;;;;;;5060901;28;20048;-63
2023/10/05 14:28:05;;;;;;;2.47;2.28;;;;;;;;;;5063656;28;20056;-63
2023/10/05 14:30:35;;;;;;;4.07;1.98;;;;;;;;;;5060572;28;20097;-63
2023/10/05 14:33:05;;;;;;;1.92;1.80;;;;;;;;;;5060007;28;20641;-63
2023/10/05 14:35:34;;;;;;;2.17;1.95;;;;;;;;;;5062658;28;20060;-63
2023/10/05 14:38:05;;;;;;;3.15;1.90;;;;;;;;;;5065240;28;20113;-63
2023/10/05 14:40:35;;;;;;;3.60;2.40;;;;;;;;;;5062651;28;20129;-63
2023/10/05 14:43:05;;;;;;;3.10;2.05;;;;;;;;;;5058736;28;20068;-63
2023/10/05 14:45:33;;;;;;;4.22;2.15;;;;;;;;;;5062320;28;20040;-63
2023/10/05 14:48:07;;;;;;;2.83;2.20;;;;;;;;;;5062550;28;20451;-64
2023/10/05 14:50:37;;;;;;;4.28;2.00;;;;;;;;;;5059212;28;20044;-63
2023/10/05 14:53:11;;;;;;;1.98;1.88;;;;;;;;;;5060683;28;20122;-64
2023/10/05 14:55:45;;;;;;;1.85;1.75;;;;;;;;;;5060222;28;20358;-63
2023/10/05 14:58:16;;;;;;;2.20;2.10;;;;;;;;;;5057151;28;20040;-63
2023/10/05 15:00:45;;;;;;;2.65;1.90;;;;;;;;;;5056976;28;20135;-63
2023/10/05 15:03:13;;;;;;;4.25;1.98;;;;;;;;;;5061145;28;21013;-64
2023/10/05 15:05:43;;;;;;;2.17;2.03;;;;;;;;;;5058830;28;20040;-63
2023/10/05 15:08:13;;;;;;;2.28;1.90;;;;;;;;;;5063356;28;20428;-63
2023/10/05 15:10:47;;;;;;;2.00;1.90;;;;;;;;;;5059508;28;20059;-63
2023/10/05 15:13:15;;;;;;;3.47;2.08;;;;;;;;;;5057791;28;20047;-63
2023/10/05 15:15:45;;;;;;;2.45;1.98;;;;;;;;;;5060130;28;20129;-64